Time;durP1;ratioP1;P1;durP2;ratioP2;P2;SDS_P1;SDS_P2;PMS_P1;PMS_P2;Temp;Humidity;BMP_temperature;BMP_pressure;BME280_temperature;BME280_humidity;BME280_pressure;Samples;Min_cycle;Max_cycle;Signal;HPM_P1;HPM_P2
2020/12/17 00:00:25;;;;;;;14.80;7.68;;;2.30;99.90;;;;;;4995484;28;20526;-76
2020/12/17 00:02:51;;;;;;;13.98;7.22;;;2.30;99.90;;;;;;5012862;28;20022;-75
2020/12/17 00:05:18;;;;;;;16.48;7.85;;;2.30;99.90;;;;;;4997411;28;20087;-76
2020/12/17 00:07:44;;;;;;;14.52;7.20;;;2.30;99.90;;;;;;4998278;28;20030;-76
2020/12/17 00:10:11;;;;;;;13.95;7.60;;;2.30;99.90;;;;;;5012918;28;20036;-75
2020/12/17 00:12:39;;;;;;;14.98;7.50;;;2.30;99.90;;;;;;5012594;28;20052;-76
2020/12/17 00:15:10;;;;;;;15.20;7.80;;;2.30;99.90;;;;;;4994926;28;20083;-75
2020/12/17 00:17:52;;;;;;;15.05;7.20;;;2.30;99.90;;;;;;5012616;28;20404;-76
2020/12/17 00:20:20;;;;;;;16.00;7.70;;;2.30;99.90;;;;;;5012618;28;20048;-76
2020/12/17 00:22:46;;;;;;;15.52;7.95;;;2.30;99.90;;;;;;5012601;28;20377;-76
2020/12/17 00:25:13;;;;;;;15.30;8.18;;;2.30;99.90;;;;;;4994796;28;20026;-76
2020/12/17 00:27:40;;;;;;;13.18;6.97;;;2.30;99.90;;;;;;4994796;28;20026;-76
2020/12/17 00:30:09;;;;;;;14.02;7.35;;;2.30;99.90;;;;;;5012468;28;20033;-75
2020/12/17 00:32:35;;;;;;;18.60;8.13;;;2.40;99.90;;;;;;4994933;28;20384;-76
2020/12/17 00:35:02;;;;;;;15.73;7.95;;;2.30;99.90;;;;;;4994474;28;20369;-76
2020/12/17 00:37:32;;;;;;;14.85;7.53;;;2.30;99.90;;;;;;5012424;28;20017;-77
2020/12/17 00:39:58;;;;;;;16.20;8.05;;;2.40;99.90;;;;;;4994715;28;20022;-74
2020/12/17 00:42:24;;;;;;;29.58;7.85;;;2.40;99.90;;;;;;4994561;28;20029;-74
2020/12/17 00:44:50;;;;;;;13.93;7.47;;;2.30;99.90;;;;;;5012284;28;20037;-75
2020/12/17 00:47:16;;;;;;;14.85;7.03;;;2.40;99.90;;;;;;5012376;28;20054;-75
2020/12/17 00:49:43;;;;;;;15.02;7.78;;;2.40;99.90;;;;;;5012204;28;20022;-76
2020/12/17 00:52:08;;;;;;;16.08;8.02;;;2.40;99.90;;;;;;4994567;28;20413;-77
2020/12/17 00:54:37;;;;;;;15.48;8.23;;;2.40;99.90;;;;;;4994689;28;20064;-77
2020/12/17 00:57:03;;;;;;;13.68;7.30;;;2.40;99.90;;;;;;5012155;28;20046;-77
2020/12/17 00:59:28;;;;;;;13.80;7.53;;;2.40;99.90;;;;;;4994690;28;20093;-77
2020/12/17 01:01:54;;;;;;;14.65;7.45;;;2.40;99.90;;;;;;5012254;28;20041;-76
2020/12/17 01:04:20;;;;;;;14.68;7.85;;;2.40;99.90;;;;;;5012087;28;20472;-77
2020/12/17 01:06:45;;;;;;;14.88;7.85;;;2.40;99.90;;;;;;4994672;28;20065;-77
2020/12/17 01:09:11;;;;;;;15.88;8.07;;;2.40;99.90;;;;;;4994556;28;20539;-77
2020/12/17 01:11:37;;;;;;;15.32;7.75;;;2.40;99.90;;;;;;5012330;28;20030;-76
2020/12/17 01:14:03;;;;;;;12.93;7.60;;;2.40;99.90;;;;;;5012164;28;20412;-77
2020/12/17 01:16:29;;;;;;;13.57;7.63;;;2.40;99.90;;;;;;4994431;28;20018;-77
2020/12/17 01:18:55;;;;;;;12.75;7.00;;;2.40;99.90;;;;;;5013363;28;20026;-77
2020/12/17 01:21:21;;;;;;;10.90;6.13;;;2.40;99.90;;;;;;5015953;28;20101;-76
2020/12/17 01:23:47;;;;;;;10.25;5.90;;;2.40;99.90;;;;;;5016182;28;20083;-76
2020/12/17 01:26:13;;;;;;;11.50;6.15;;;2.40;99.90;;;;;;5015823;28;20033;-75
2020/12/17 01:28:40;;;;;;;11.05;6.10;;;2.40;99.90;;;;;;5015830;28;20022;-75
2020/12/17 01:31:06;;;;;;;10.20;6.70;;;2.40;99.90;;;;;;4998153;28;20415;-75
2020/12/17 01:33:32;;;;;;;11.43;6.63;;;2.40;99.90;;;;;;5015544;28;20018;-75
2020/12/17 01:36:03;;;;;;;11.60;6.47;;;2.40;99.90;;;;;;4998034;28;20029;-75
2020/12/17 01:38:29;;;;;;;14.63;7.63;;;2.40;99.90;;;;;;5015857;28;20041;-75
2020/12/17 01:40:54;;;;;;;14.10;7.63;;;2.40;99.90;;;;;;5015444;28;20173;-75
2020/12/17 01:43:20;;;;;;;11.52;6.90;;;2.40;99.90;;;;;;5015490;28;20030;-75
2020/12/17 01:45:46;;;;;;;16.05;7.20;;;2.50;99.90;;;;;;4997648;28;20053;-76
2020/12/17 01:48:15;;;;;;;14.27;6.90;;;2.50;99.90;;;;;;5015377;28;20076;-75
2020/12/17 01:50:41;;;;;;;17.88;6.72;;;2.50;99.90;;;;;;5015404;28;20488;-76
2020/12/17 01:53:07;;;;;;;12.75;6.90;;;2.50;99.90;;;;;;4997729;28;20041;-76
2020/12/17 01:55:32;;;;;;;11.77;7.07;;;2.50;99.90;;;;;;4997595;28;20025;-75
2020/12/17 01:58:02;;;;;;;11.57;6.50;;;2.50;99.90;;;;;;5015224;28;20029;-76
2020/12/17 02:00:35;;;;;;;12.57;6.32;;;2.50;99.90;;;;;;4997737;28;20021;-76
2020/12/17 02:03:02;;;;;;;10.77;6.22;;;2.50;99.90;;;;;;5015120;28;20022;-76
2020/12/17 02:05:28;;;;;;;11.10;6.25;;;2.50;99.90;;;;;;5015044;28;20480;-76
2020/12/17 02:07:56;;;;;;;11.20;6.30;;;2.50;99.90;;;;;;5015154;28;20022;-76
2020/12/17 02:10:22;;;;;;;11.95;6.07;;;2.50;99.90;;;;;;4997594;28;20431;-76
2020/12/17 02:12:49;;;;;;;10.98;6.03;;;2.50;99.90;;;;;;4997757;28;20041;-75
2020/12/17 02:15:16;;;;;;;11.20;6.13;;;2.50;99.90;;;;;;4997525;28;20034;-76
2020/12/17 02:17:42;;;;;;;10.48;6.00;;;2.50;99.90;;;;;;5015137;28;20058;-75
2020/12/17 02:20:09;;;;;;;9.43;6.05;;;2.50;99.90;;;;;;4997545;28;20061;-75
2020/12/17 02:22:35;;;;;;;13.18;6.82;;;2.50;99.90;;;;;;5016512;28;20056;-84
2020/12/17 02:25:05;;;;;;;11.50;6.43;;;2.40;99.90;;;;;;5016807;28;20469;-82
2020/12/17 02:27:31;;;;;;;11.88;6.68;;;2.40;99.90;;;;;;5016649;28;20464;-83
2020/12/17 02:29:57;;;;;;;12.82;6.97;;;2.50;99.90;;;;;;5015942;28;20112;-83
2020/12/17 02:32:23;;;;;;;13.55;6.53;;;2.40;99.90;;;;;;4998854;28;20040;-83
2020/12/17 02:34:49;;;;;;;11.10;6.15;;;2.40;99.90;;;;;;5016535;28;20033;-84
2020/12/17 02:37:15;;;;;;;13.93;7.07;;;2.40;99.90;;;;;;5016195;28;20420;-85
2020/12/17 02:39:40;;;;;;;27.08;13.93;;;2.40;99.90;;;;;;5002308;28;20087;-83
2020/12/17 02:42:06;;;;;;;30.38;16.13;;;2.40;99.90;;;;;;5016875;28;20030;-83
2020/12/17 02:44:32;;;;;;;16.65;9.10;;;2.40;99.90;;;;;;5016418;28;20053;-81
2020/12/17 02:46:58;;;;;;;14.65;7.55;;;2.40;99.90;;;;;;4998667;28;20050;-85
2020/12/17 02:49:24;;;;;;;12.35;7.30;;;2.40;99.90;;;;;;5017282;28;20032;-84
2020/12/17 02:51:50;;;;;;;15.80;8.20;;;2.50;99.90;;;;;;5017210;28;20049;-85
2020/12/17 02:54:18;;;;;;;13.70;7.57;;;2.50;99.90;;;;;;5000026;28;20033;-84
2020/12/17 02:56:44;;;;;;;16.33;7.30;;;2.50;99.90;;;;;;4999844;28;20026;-84
2020/12/17 02:59:10;;;;;;;14.43;6.95;;;2.50;99.90;;;;;;5017848;28;20021;-88
2020/12/17 03:01:36;;;;;;;14.25;8.18;;;2.50;99.90;;;;;;5017568;28;20404;-86
2020/12/17 03:04:02;;;;;;;12.38;6.80;;;2.50;99.90;;;;;;5016893;28;20030;-87
2020/12/17 03:06:27;;;;;;;11.40;6.88;;;2.50;99.90;;;;;;5016834;28;20025;-86
2020/12/17 03:08:53;;;;;;;12.40;6.78;;;2.50;99.90;;;;;;5016752;28;20022;-86
2020/12/17 03:11:19;;;;;;;13.38;6.28;;;2.50;99.90;;;;;;5018806;28;20030;-86
2020/12/17 03:13:45;;;;;;;12.52;5.93;;;2.50;99.90;;;;;;5000484;28;20084;-86
2020/12/17 03:16:10;;;;;;;10.90;6.32;;;2.50;99.90;;;;;;5016493;28;20038;-86
2020/12/17 03:18:36;;;;;;;9.35;5.65;;;2.50;99.90;;;;;;5016170;28;20038;-86
2020/12/17 03:21:02;;;;;;;9.98;5.68;;;2.50;99.90;;;;;;5017869;28;20739;-87
2020/12/17 03:23:27;;;;;;;9.90;5.38;;;2.50;99.90;;;;;;4998717;28;20068;-86
2020/12/17 03:25:53;;;;;;;10.35;5.90;;;2.50;99.90;;;;;;5016142;28;20093;-82
2020/12/17 03:28:19;;;;;;;10.38;5.85;;;2.50;99.90;;;;;;5015336;28;20030;-87
2020/12/17 03:30:45;;;;;;;9.05;5.28;;;2.60;99.90;;;;;;5015667;28;20096;-86
2020/12/17 03:33:11;;;;;;;10.32;6.13;;;2.60;99.90;;;;;;5015639;28;20040;-86
2020/12/17 03:35:36;;;;;;;9.82;5.63;;;2.60;99.90;;;;;;4997934;28;20030;-86
2020/12/17 03:38:02;;;;;;;11.00;5.97;;;2.60;99.90;;;;;;5015248;28;20057;-86
2020/12/17 03:40:29;;;;;;;11.00;6.45;;;2.50;99.90;;;;;;5014865;28;20381;-85
2020/12/17 03:42:55;;;;;;;9.60;5.97;;;2.50;99.90;;;;;;4997083;28;20033;-86
2020/12/17 03:45:21;;;;;;;13.18;6.78;;;2.50;99.90;;;;;;5014474;28;20069;-86
2020/12/17 03:47:48;;;;;;;14.38;7.80;;;2.40;99.90;;;;;;5015605;28;20030;-86
2020/12/17 03:50:14;;;;;;;15.82;8.35;;;2.40;99.90;;;;;;5015669;28;20036;-86
2020/12/17 03:52:40;;;;;;;14.30;8.07;;;2.40;99.90;;;;;;5015507;28;20366;-86
2020/12/17 03:55:06;;;;;;;13.48;8.15;;;2.30;99.90;;;;;;5015033;28;20084;-86
2020/12/17 03:57:32;;;;;;;13.20;8.57;;;2.30;99.90;;;;;;4997341;28;20034;-86
2020/12/17 03:59:58;;;;;;;15.40;8.77;;;2.30;99.90;;;;;;4997267;28;20026;-86
2020/12/17 04:02:24;;;;;;;14.50;8.68;;;2.30;99.90;;;;;;5015178;28;20053;-85
2020/12/17 04:04:50;;;;;;;14.32;8.65;;;2.30;99.90;;;;;;5001489;28;20095;-85
2020/12/17 04:07:16;;;;;;;15.15;8.35;;;2.30;99.90;;;;;;5036334;28;20038;-85
2020/12/17 04:09:46;;;;;;;14.90;9.30;;;2.30;99.90;;;;;;5036342;28;20034;-84
2020/12/17 04:12:11;;;;;;;21.27;10.80;;;2.30;99.90;;;;;;5015120;28;20030;-86
2020/12/17 04:14:40;;;;;;;19.90;10.48;;;2.30;99.90;;;;;;5001776;28;20033;-76
2020/12/17 04:17:06;;;;;;;16.90;9.27;;;2.30;99.90;;;;;;4995254;28;20025;-75
2020/12/17 04:19:32;;;;;;;15.68;9.23;;;2.30;99.90;;;;;;5013478;28;20025;-88
2020/12/17 04:21:58;;;;;;;17.17;10.02;;;2.30;99.90;;;;;;4998648;28;20345;-84
2020/12/17 04:24:25;;;;;;;31.92;16.70;;;2.30;99.90;;;;;;5016081;28;20040;-86
2020/12/17 04:26:52;;;;;;;19.50;11.38;;;2.30;99.90;;;;;;5016104;28;20040;-86
2020/12/17 04:29:19;;;;;;;22.02;11.43;;;2.30;99.90;;;;;;5016402;28;20519;-84
2020/12/17 04:31:45;;;;;;;16.40;9.70;;;2.30;99.90;;;;;;5016852;28;20050;-86
2020/12/17 04:34:11;;;;;;;13.38;7.88;;;2.30;99.90;;;;;;5015213;28;20061;-84
2020/12/17 04:36:37;;;;;;;14.68;8.23;;;2.30;99.90;;;;;;5015487;28;20503;-84
2020/12/17 04:39:04;;;;;;;13.32;7.82;;;2.30;99.90;;;;;;5015229;28;20018;-86
2020/12/17 04:41:31;;;;;;;12.85;7.18;;;2.30;99.90;;;;;;4996901;28;20030;-86
2020/12/17 04:43:58;;;;;;;15.07;8.10;;;2.30;99.90;;;;;;4996715;28;20068;-86
2020/12/17 04:46:25;;;;;;;14.50;7.22;;;2.30;99.90;;;;;;5013972;28;20057;-85
2020/12/17 04:48:53;;;;;;;14.18;8.13;;;2.30;99.90;;;;;;5013807;28;20045;-86
2020/12/17 04:51:20;;;;;;;13.88;7.78;;;2.30;99.90;;;;;;5014082;28;20104;-86
2020/12/17 04:53:49;;;;;;;12.63;7.60;;;2.30;99.90;;;;;;4996022;28;20038;-87
2020/12/17 04:56:17;;;;;;;15.55;7.68;;;2.30;99.90;;;;;;4996236;28;20487;-87
2020/12/17 04:58:48;;;;;;;11.98;7.47;;;2.30;99.90;;;;;;5013952;28;20122;-86
2020/12/17 05:01:18;;;;;;;14.25;6.80;;;2.30;99.90;;;;;;4996312;28;20033;-86
2020/12/17 05:03:47;;;;;;;15.48;6.95;;;2.30;99.90;;;;;;4996341;28;20385;-86
2020/12/17 05:06:22;;;;;;;13.65;8.13;;;2.30;99.90;;;;;;4996214;28;20432;-86
2020/12/17 05:08:52;;;;;;;11.85;7.35;;;2.40;99.90;;;;;;5014363;28;20018;-86
2020/12/17 05:11:19;;;;;;;15.40;8.75;;;2.40;99.90;;;;;;5012539;28;20422;-75
2020/12/17 05:13:45;;;;;;;18.65;7.90;;;2.40;99.90;;;;;;4994026;28;20123;-77
2020/12/17 05:16:10;;;;;;;16.17;8.48;;;2.40;99.90;;;;;;5011622;28;20034;-76
2020/12/17 05:18:37;;;;;;;15.13;8.43;;;2.40;99.90;;;;;;5011186;28;20065;-77
2020/12/17 05:21:03;;;;;;;13.20;7.45;;;2.50;99.90;;;;;;5011343;28;20070;-76
2020/12/17 05:23:30;;;;;;;15.10;8.23;;;2.40;99.90;;;;;;5011229;28;20109;-76
2020/12/17 05:25:56;;;;;;;17.00;9.07;;;2.50;99.90;;;;;;5011401;28;20061;-76
2020/12/17 05:28:22;;;;;;;14.63;7.82;;;2.50;99.90;;;;;;5011496;28;20121;-76
2020/12/17 05:30:48;;;;;;;16.05;9.02;;;2.50;99.90;;;;;;5011156;28;20100;-77
2020/12/17 05:33:14;;;;;;;15.75;8.35;;;2.50;99.90;;;;;;4993509;28;20527;-77
2020/12/17 05:35:42;;;;;;;16.15;9.07;;;2.50;99.90;;;;;;5010612;28;20091;-77
2020/12/17 05:38:11;;;;;;;14.95;8.70;;;2.50;99.90;;;;;;4993394;28;20057;-77
2020/12/17 05:40:43;;;;;;;16.52;9.43;;;2.50;99.90;;;;;;5011025;28;20018;-76
2020/12/17 05:43:10;;;;;;;16.80;8.82;;;2.50;99.90;;;;;;5011562;28;20026;-76
2020/12/17 05:45:37;;;;;;;19.55;9.32;;;2.60;99.90;;;;;;4993492;28;20576;-76
2020/12/17 05:48:20;;;;;;;17.65;8.95;;;2.60;99.90;;;;;;5011180;28;20654;-77
2020/12/17 05:51:00;;;;;;;15.98;8.13;;;2.60;99.90;;;;;;5011408;28;20624;-76
2020/12/17 05:53:42;;;;;;;16.35;9.07;;;2.60;99.90;;;;;;5017290;28;20476;-89
2020/12/17 05:56:08;;;;;;;17.05;8.80;;;2.60;99.90;;;;;;5001492;28;20057;-87
2020/12/17 05:58:44;;;;;;;21.13;11.15;;;2.60;99.90;;;;;;4998593;28;20030;-86
2020/12/17 06:01:15;;;;;;;24.92;10.02;;;2.60;99.90;;;;;;5013798;28;20472;-86
2020/12/17 06:03:49;;;;;;;18.55;9.07;;;2.60;99.90;;;;;;5013693;28;20037;-87
2020/12/17 06:06:15;;;;;;;17.27;8.40;;;2.60;99.90;;;;;;5016331;28;20096;-85
2020/12/17 06:08:42;;;;;;;14.52;8.77;;;2.60;99.90;;;;;;5017260;28;20018;-82
2020/12/17 06:11:09;;;;;;;19.58;9.43;;;2.60;99.90;;;;;;5018012;28;20022;-84
2020/12/17 06:13:40;;;;;;;27.95;9.65;;;2.60;99.90;;;;;;5015876;28;20015;-75
2020/12/17 06:16:07;;;;;;;19.75;9.60;;;2.70;99.90;;;;;;5014688;28;20064;-85
2020/12/17 06:19:05;;;;;;;15.85;9.27;;;2.70;99.90;;;;;;5015889;28;20026;-75
2020/12/17 06:21:31;;;;;;;17.58;9.38;;;2.70;99.90;;;;;;4992098;28;20088;-75
2020/12/17 06:24:00;;;;;;;16.23;9.70;;;2.70;99.90;;;;;;5013617;28;20022;-75
2020/12/17 06:26:26;;;;;;;14.57;8.65;;;2.70;99.90;;;;;;5013597;28;20505;-75
2020/12/17 06:28:54;;;;;;;17.83;8.65;;;2.70;99.90;;;;;;5014749;28;20461;-84
2020/12/17 06:31:25;;;;;;;18.15;10.15;;;2.70;99.90;;;;;;5015287;28;20084;-81
2020/12/17 06:33:55;;;;;;;13.63;8.85;;;2.70;99.90;;;;;;4997774;28;20018;-85
2020/12/17 06:36:44;;;;;;;17.17;9.68;;;2.80;99.90;;;;;;5015747;28;20442;-82
2020/12/17 06:39:09;;;;;;;19.33;9.70;;;2.80;99.90;;;;;;5015811;28;20037;-83
2020/12/17 06:41:36;;;;;;;19.25;9.27;;;2.80;99.90;;;;;;4997783;28;20057;-83
2020/12/17 06:44:31;;;;;;;14.23;8.90;;;2.80;99.90;;;;;;5015392;28;20052;-82
2020/12/17 06:47:02;;;;;;;15.15;9.07;;;2.80;99.90;;;;;;5014938;28;20046;-83
2020/12/17 06:49:29;;;;;;;21.85;10.82;;;2.80;99.90;;;;;;4997827;28;20088;-83
2020/12/17 06:52:08;;;;;;;21.77;9.77;;;2.80;99.90;;;;;;5017700;28;20463;-84
2020/12/17 06:54:42;;;;;;;17.65;9.73;;;2.80;99.90;;;;;;5014518;28;20393;-84
2020/12/17 06:57:12;;;;;;;19.23;11.07;;;2.80;99.90;;;;;;5015978;28;20098;-87
2020/12/17 06:59:40;;;;;;;29.23;15.70;;;2.80;99.90;;;;;;5015913;28;20105;-86
2020/12/17 07:02:06;;;;;;;16.23;9.35;;;2.80;99.90;;;;;;4998856;28;20045;-85
2020/12/17 07:04:48;;;;;;;19.15;11.05;;;2.90;99.90;;;;;;4998958;28;20116;-84
2020/12/17 07:07:21;;;;;;;19.33;11.43;;;2.90;99.90;;;;;;5015337;28;20056;-85
2020/12/17 07:09:55;;;;;;;21.80;11.63;;;2.90;99.90;;;;;;5016054;28;20030;-84
2020/12/17 07:12:36;;;;;;;17.83;9.18;;;2.90;99.90;;;;;;5014380;28;20476;-87
2020/12/17 07:15:05;;;;;;;20.85;8.45;;;3.00;99.90;;;;;;4997028;28;20075;-86
2020/12/17 07:17:31;;;;;;;12.38;7.35;;;3.00;99.90;;;;;;4996969;28;20865;-85
2020/12/17 07:19:57;;;;;;;10.93;6.60;;;3.00;99.90;;;;;;4996763;28;20056;-79
2020/12/17 07:22:23;;;;;;;10.57;6.60;;;3.00;99.90;;;;;;5013503;28;20116;-78
2020/12/17 07:24:50;;;;;;;9.40;6.20;;;3.00;99.90;;;;;;5013486;28;20100;-79
2020/12/17 07:27:18;;;;;;;12.18;6.40;;;3.00;99.90;;;;;;5013580;28;20161;-78
2020/12/17 07:29:47;;;;;;;11.18;6.97;;;3.10;99.90;;;;;;5012887;28;20026;-79
2020/12/17 07:32:36;;;;;;;13.88;8.23;;;3.10;99.90;;;;;;4995200;28;20037;-79
2020/12/17 07:35:07;;;;;;;11.82;7.40;;;3.10;99.90;;;;;;4995329;28;20472;-78
2020/12/17 07:37:52;;;;;;;11.40;6.82;;;3.20;99.90;;;;;;5012620;28;20022;-78
2020/12/17 07:40:39;;;;;;;11.85;6.85;;;3.20;99.90;;;;;;5012873;28;20028;-78
2020/12/17 07:43:15;;;;;;;14.75;7.90;;;3.20;99.90;;;;;;5013281;28;20026;-78
2020/12/17 07:45:58;;;;;;;18.50;10.50;;;3.20;99.90;;;;;;5012861;28;20045;-78
2020/12/17 07:48:54;;;;;;;19.30;10.80;;;3.30;99.90;;;;;;5012450;28;20036;-79
2020/12/17 07:51:19;;;;;;;18.85;10.38;;;3.30;99.90;;;;;;5012896;28;20037;-78
2020/12/17 07:53:50;;;;;;;18.75;10.95;;;3.30;99.90;;;;;;4995141;28;20038;-79
2020/12/17 07:56:20;;;;;;;22.55;12.20;;;3.30;99.90;;;;;;5013318;28;20024;-85
2020/12/17 07:58:47;;;;;;;19.92;11.23;;;3.40;99.90;;;;;;4996068;28;20157;-84
2020/12/17 08:01:13;;;;;;;18.83;10.40;;;3.40;99.90;;;;;;5013714;28;20029;-86
2020/12/17 08:03:45;;;;;;;21.08;12.20;;;3.40;99.90;;;;;;4995997;28;20381;-85
2020/12/17 08:06:13;;;;;;;21.83;11.68;;;3.50;99.90;;;;;;4994531;28;20030;-79
2020/12/17 08:08:40;;;;;;;20.65;12.00;;;3.50;99.90;;;;;;4995009;28;20200;-81
2020/12/17 08:11:07;;;;;;;20.98;11.40;;;3.50;99.90;;;;;;4994762;28;20025;-78
2020/12/17 08:13:33;;;;;;;21.55;11.60;;;3.60;99.90;;;;;;4995233;28;20030;-79
2020/12/17 08:15:59;;;;;;;19.48;11.57;;;3.60;99.90;;;;;;5012790;28;20205;-80
2020/12/17 08:18:30;;;;;;;18.80;10.77;;;3.60;99.90;;;;;;4995389;28;20022;-80
2020/12/17 08:21:04;;;;;;;19.83;11.38;;;3.70;99.90;;;;;;4995325;28;20483;-79
2020/12/17 08:23:32;;;;;;;19.92;12.02;;;3.70;99.90;;;;;;4995151;28;20022;-80
2020/12/17 08:26:02;;;;;;;18.70;11.25;;;3.70;99.90;;;;;;5012529;28;20033;-78
2020/12/17 08:28:33;;;;;;;19.90;11.55;;;3.70;99.90;;;;;;4994048;28;20506;-79
2020/12/17 08:31:25;;;;;;;19.77;10.35;;;3.70;99.90;;;;;;4995209;28;20045;-79
2020/12/17 08:33:56;;;;;;;19.75;12.30;;;3.70;99.90;;;;;;5012721;28;20101;-80
2020/12/17 08:36:30;;;;;;;23.20;12.77;;;3.80;99.90;;;;;;4994820;28;20358;-78
2020/12/17 08:39:00;;;;;;;24.58;11.70;;;3.80;99.90;;;;;;5012293;28;20508;-80
2020/12/17 08:41:39;;;;;;;19.63;11.88;;;3.80;99.90;;;;;;5012855;28;20109;-84
2020/12/17 08:44:06;;;;;;;21.38;12.68;;;3.80;99.90;;;;;;5013545;28;20036;-83
2020/12/17 08:46:44;;;;;;;18.55;10.93;;;3.90;99.90;;;;;;5012211;28;20057;-78
2020/12/17 08:49:12;;;;;;;17.27;10.63;;;3.90;99.90;;;;;;5012079;28;20018;-85
2020/12/17 08:51:38;;;;;;;16.23;10.07;;;3.90;99.90;;;;;;5013184;28;20030;-85
2020/12/17 08:54:05;;;;;;;16.35;9.40;;;4.00;99.90;;;;;;5013026;28;20030;-85
2020/12/17 08:56:31;;;;;;;18.38;10.77;;;4.00;99.90;;;;;;4995022;28;20091;-85
2020/12/17 08:59:03;;;;;;;17.70;9.98;;;4.00;99.90;;;;;;4995538;28;20029;-85
2020/12/17 09:01:34;;;;;;;19.88;11.23;;;4.10;99.90;;;;;;5014289;28;20373;-84
2020/12/17 09:04:06;;;;;;;17.67;10.75;;;4.10;99.90;;;;;;4996156;28;20037;-86
2020/12/17 09:06:32;;;;;;;23.15;11.13;;;4.10;99.90;;;;;;5012716;28;20022;-85
2020/12/17 09:09:25;;;;;;;17.25;10.85;;;4.10;99.90;;;;;;5012745;28;20057;-85
2020/12/17 09:11:52;;;;;;;19.25;10.68;;;4.10;99.90;;;;;;4995492;28;20568;-83
2020/12/17 09:14:20;;;;;;;32.55;16.88;;;4.10;99.90;;;;;;4995994;28;20042;-85
2020/12/17 09:16:50;;;;;;;23.20;14.35;;;4.10;99.90;;;;;;4995936;28;20369;-85
2020/12/17 09:19:16;;;;;;;25.80;15.27;;;4.20;99.90;;;;;;4996032;28;20029;-86
2020/12/17 09:21:59;;;;;;;19.73;11.65;;;4.20;99.90;;;;;;4996085;28;20371;-86
2020/12/17 09:24:31;;;;;;;21.88;11.93;;;4.20;99.90;;;;;;5014098;28;20022;-86
2020/12/17 09:26:57;;;;;;;;;;;4.20;99.90;;;;;;4996084;28;20034;-84
2020/12/17 09:29:24;;;;;;;17.60;10.88;;;4.30;99.90;;;;;;4995930;28;19917;-82
2020/12/17 09:31:50;;;;;;;17.77;10.98;;;4.20;99.90;;;;;;5012723;28;20030;-82
2020/12/17 09:34:22;;;;;;;20.35;10.70;;;4.20;99.90;;;;;;5013171;28;20034;-83
2020/12/17 09:36:58;;;;;;;24.05;13.25;;;4.20;99.90;;;;;;5012666;28;20477;-83
2020/12/17 09:39:24;;;;;;;20.08;11.40;;;4.20;99.90;;;;;;5013287;28;20481;-83
2020/12/17 09:41:57;;;;;;;22.90;12.38;;;4.20;99.90;;;;;;5015816;28;20076;-83
2020/12/17 09:44:31;;;;;;;21.27;12.38;;;4.20;99.90;;;;;;5016375;28;20535;-83
2020/12/17 09:47:00;;;;;;;23.85;12.43;;;4.20;99.90;;;;;;5001250;28;20046;-83
2020/12/17 09:49:29;;;;;;;23.67;12.10;;;4.20;99.90;;;;;;5016261;28;20034;-83
2020/12/17 09:52:08;;;;;;;22.05;12.40;;;4.20;99.90;;;;;;5016222;28;20029;-84
2020/12/17 09:54:39;;;;;;;20.38;12.65;;;4.30;99.90;;;;;;4998756;28;20029;-84
2020/12/17 09:57:09;;;;;;;20.73;13.10;;;4.20;99.90;;;;;;4982177;28;20029;-82
2020/12/17 09:59:34;;;;;;;23.10;12.60;;;4.20;99.90;;;;;;5016747;28;20069;-82
2020/12/17 10:02:02;;;;;;;23.38;13.27;;;4.20;99.90;;;;;;4999816;28;20357;-82
2020/12/17 10:04:28;;;;;;;22.73;12.68;;;4.20;99.90;;;;;;5000296;28;20037;-83
2020/12/17 10:06:54;;;;;;;23.40;13.68;;;4.30;99.90;;;;;;5016408;28;20472;-84
2020/12/17 10:09:24;;;;;;;21.33;13.70;;;4.20;99.90;;;;;;5016836;28;20068;-82
2020/12/17 10:11:51;;;;;;;20.13;12.45;;;4.30;99.90;;;;;;5016340;28;20468;-82
2020/12/17 10:14:18;;;;;;;20.40;12.07;;;4.30;99.90;;;;;;5018621;28;20034;-84
2020/12/17 10:16:46;;;;;;;24.88;14.60;;;4.30;99.90;;;;;;5014574;28;20014;-80
2020/12/17 10:19:12;;;;;;;26.17;14.50;;;4.30;99.90;;;;;;4999301;28;20538;-80
2020/12/17 10:21:39;;;;;;;20.13;11.80;;;4.30;99.90;;;;;;5002291;28;20065;-86
2020/12/17 10:24:08;;;;;;;21.02;13.25;;;4.30;99.90;;;;;;4999185;28;20029;-87
2020/12/17 10:26:34;;;;;;;26.40;13.32;;;4.30;99.90;;;;;;4983579;28;20076;-86
2020/12/17 10:29:00;;;;;;;23.60;12.82;;;4.30;99.90;;;;;;5018718;28;20026;-86
2020/12/17 10:31:27;;;;;;;21.50;12.88;;;4.30;99.90;;;;;;5018763;28;20522;-87
2020/12/17 10:33:54;;;;;;;22.80;12.93;;;4.20;99.90;;;;;;5017312;28;20048;-87
2020/12/17 10:36:20;;;;;;;21.00;12.40;;;4.30;99.90;;;;;;5000203;28;20022;-86
2020/12/17 10:38:46;;;;;;;21.17;12.73;;;4.30;99.90;;;;;;5018421;28;20109;-84
2020/12/17 10:41:11;;;;;;;18.25;11.45;;;4.30;99.90;;;;;;5017510;28;20206;-85
2020/12/17 10:43:38;;;;;;;22.60;13.13;;;4.30;99.90;;;;;;5018007;28;20025;-84
2020/12/17 10:46:04;;;;;;;26.50;15.30;;;4.30;99.90;;;;;;5000912;28;20053;-86
2020/12/17 10:48:30;;;;;;;27.52;14.90;;;4.30;99.90;;;;;;5000989;28;20049;-87
2020/12/17 10:50:55;;;;;;;26.55;14.57;;;4.30;99.90;;;;;;4999721;28;20037;-87
2020/12/17 10:53:21;;;;;;;22.52;14.18;;;4.30;99.90;;;;;;5015873;28;20037;-86
2020/12/17 10:55:47;;;;;;;20.65;12.40;;;4.30;99.90;;;;;;5015025;28;20072;-87
2020/12/17 10:58:15;;;;;;;23.05;13.13;;;4.30;99.90;;;;;;5014945;28;20026;-88
2020/12/17 11:00:45;;;;;;;20.75;12.90;;;4.30;99.90;;;;;;5017062;28;20033;-86
2020/12/17 11:03:11;;;;;;;21.38;13.30;;;4.30;99.90;;;;;;4990936;28;20431;-87
2020/12/17 11:05:37;;;;;;;19.77;12.35;;;4.30;99.90;;;;;;5016102;28;20022;-86
2020/12/17 11:08:03;;;;;;;25.95;13.85;;;4.30;99.90;;;;;;5016466;28;20034;-86
2020/12/17 11:10:29;;;;;;;26.05;15.70;;;4.30;99.90;;;;;;5018137;28;20469;-88
2020/12/17 11:12:58;;;;;;;28.15;18.15;;;4.30;99.90;;;;;;5017016;28;20078;-87
2020/12/17 11:15:24;;;;;;;21.67;13.18;;;4.30;99.90;;;;;;5017953;28;20053;-86
2020/12/17 11:17:49;;;;;;;24.27;13.77;;;4.30;99.90;;;;;;5014110;28;20474;-79
2020/12/17 11:20:17;;;;;;;21.25;13.18;;;4.30;99.90;;;;;;5013483;28;20105;-79
2020/12/17 11:22:45;;;;;;;20.58;12.82;;;4.30;99.90;;;;;;5012853;28;20037;-80
2020/12/17 11:25:11;;;;;;;28.88;14.05;;;4.30;99.90;;;;;;5012888;28;20104;-80
2020/12/17 11:27:37;;;;;;;22.45;12.25;;;4.30;99.90;;;;;;4995438;28;20029;-80
2020/12/17 11:30:07;;;;;;;20.02;12.30;;;4.30;99.90;;;;;;5013044;28;20034;-79
2020/12/17 11:32:32;;;;;;;17.92;12.00;;;4.30;99.90;;;;;;4995531;28;20380;-78
2020/12/17 11:34:58;;;;;;;18.48;12.13;;;4.30;99.90;;;;;;5014128;28;20034;-79
2020/12/17 11:37:24;;;;;;;23.60;14.52;;;4.30;99.90;;;;;;5012833;28;20033;-80
2020/12/17 11:39:50;;;;;;;27.83;17.27;;;4.30;99.90;;;;;;5012721;28;20437;-79
2020/12/17 11:42:15;;;;;;;32.10;17.98;;;4.30;99.90;;;;;;4995198;28;20069;-80
2020/12/17 11:44:41;;;;;;;24.73;13.45;;;4.30;99.90;;;;;;5013005;28;20742;-79
2020/12/17 11:47:07;;;;;;;26.33;15.77;;;4.30;99.90;;;;;;5012766;28;20132;-79
2020/12/17 11:49:33;;;;;;;21.30;13.65;;;4.30;99.90;;;;;;4995806;28;20038;-79
2020/12/17 11:51:58;;;;;;;20.63;12.43;;;4.30;99.90;;;;;;5012936;28;20030;-88
2020/12/17 11:54:24;;;;;;;20.83;12.25;;;4.30;99.90;;;;;;5015781;28;20117;-85
2020/12/17 11:56:50;;;;;;;20.70;12.10;;;4.30;99.90;;;;;;5014928;28;20452;-85
2020/12/17 11:59:17;;;;;;;19.02;13.35;;;4.30;99.90;;;;;;4999195;28;20033;-88
2020/12/17 12:01:43;;;;;;;20.35;12.20;;;4.30;99.90;;;;;;5020527;28;20376;-86
2020/12/17 12:04:11;;;;;;;20.17;12.73;;;4.30;99.90;;;;;;5005167;28;20033;-89
2020/12/17 12:06:40;;;;;;;22.95;13.40;;;4.30;99.90;;;;;;5000825;28;20053;-88
2020/12/17 12:09:07;;;;;;;21.67;12.52;;;4.30;99.90;;;;;;5018797;28;20096;-87
2020/12/17 12:11:34;;;;;;;20.98;12.07;;;4.30;99.90;;;;;;5016162;28;20025;-89
2020/12/17 12:13:59;;;;;;;23.88;13.10;;;4.30;99.90;;;;;;4998251;28;20026;-88
2020/12/17 12:16:25;;;;;;;23.17;13.05;;;4.30;99.90;;;;;;4998350;28;20049;-89
2020/12/17 12:18:51;;;;;;;19.90;11.95;;;4.30;99.90;;;;;;4997749;28;20037;-86
2020/12/17 12:21:17;;;;;;;19.60;12.07;;;4.30;99.90;;;;;;5015267;28;20018;-88
2020/12/17 12:23:44;;;;;;;22.75;12.88;;;4.30;99.90;;;;;;5015188;28;20053;-89
2020/12/17 12:26:11;;;;;;;24.65;14.02;;;4.20;99.90;;;;;;4996656;28;20084;-87
2020/12/17 12:28:40;;;;;;;27.60;16.90;;;4.20;99.90;;;;;;4996721;28;20030;-87
2020/12/17 12:31:06;;;;;;;26.00;13.82;;;4.20;99.90;;;;;;5015748;28;20112;-89
2020/12/17 12:33:32;;;;;;;24.15;13.95;;;4.20;99.90;;;;;;4997909;28;20387;-87
2020/12/17 12:35:58;;;;;;;20.42;12.20;;;4.20;99.90;;;;;;5015458;28;20121;-88
2020/12/17 12:38:24;;;;;;;22.00;12.40;;;4.20;99.90;;;;;;5016301;28;20089;-88
2020/12/17 12:40:50;;;;;;;21.15;12.15;;;4.20;99.90;;;;;;5014783;28;20054;-88
2020/12/17 12:43:15;;;;;;;19.98;13.10;;;4.10;99.90;;;;;;5010147;28;20026;-88
2020/12/17 12:45:41;;;;;;;22.85;12.80;;;4.10;99.90;;;;;;5016230;28;20057;-87
2020/12/17 12:48:07;;;;;;;24.90;14.80;;;4.10;99.90;;;;;;5018999;28;20395;-88